createdAt,value
2018-12-16T00:02:28.131Z,13.58
2018-12-16T00:04:57.408Z,13.45
2018-12-16T00:07:26.692Z,12.75
2018-12-16T00:09:56.080Z,12.55
2018-12-16T00:12:25.495Z,13.78
2018-12-16T00:14:54.899Z,12.53
2018-12-16T00:17:24.333Z,12.55
2018-12-16T00:19:53.676Z,13.22
2018-12-16T00:22:22.920Z,13.10
2018-12-16T00:24:52.311Z,12.88
2018-12-16T00:27:21.567Z,12.10
2018-12-16T00:29:50.800Z,12.68
2018-12-16T00:32:19.970Z,12.68
2018-12-16T00:34:49.293Z,12.73
2018-12-16T00:37:18.641Z,11.45
2018-12-16T00:39:48.018Z,10.70
2018-12-16T00:42:17.422Z,12.43
2018-12-16T00:44:46.624Z,11.80
2018-12-16T00:47:15.661Z,11.45
2018-12-16T00:49:44.822Z,12.05
2018-12-16T00:52:14.209Z,10.98
2018-12-16T00:54:43.497Z,12.03
2018-12-16T00:57:12.824Z,12.18
2018-12-16T00:59:42.520Z,10.98
2018-12-16T01:02:16.710Z,11.15
2018-12-16T01:04:45.938Z,11.08
2018-12-16T01:07:15.257Z,11.70
2018-12-16T01:09:44.646Z,10.95
2018-12-16T01:12:14.048Z,10.65
2018-12-16T01:14:43.452Z,10.75
2018-12-16T01:17:12.673Z,10.50
2018-12-16T01:19:41.940Z,10.20
2018-12-16T01:22:11.184Z,10.63
2018-12-16T01:24:40.452Z,10.00
2018-12-16T01:27:09.754Z,10.18
2018-12-16T01:29:39.048Z,10.90
2018-12-16T01:32:08.208Z,10.03
2018-12-16T01:34:37.523Z,9.70
2018-12-16T01:37:06.756Z,10.60
2018-12-16T01:39:36.241Z,10.55
2018-12-16T01:42:05.680Z,10.23
2018-12-16T01:44:35.068Z,10.03
2018-12-16T01:47:04.511Z,9.50
2018-12-16T01:49:33.573Z,10.32
2018-12-16T01:52:02.879Z,9.25
2018-12-16T01:54:32.175Z,9.98
2018-12-16T01:57:01.566Z,10.20
2018-12-16T01:59:30.873Z,9.23
2018-12-16T02:02:00.268Z,9.53
2018-12-16T02:04:29.566Z,9.55
2018-12-16T02:06:58.896Z,8.73
2018-12-16T02:09:28.276Z,9.20
2018-12-16T02:11:57.385Z,9.23
2018-12-16T02:14:26.887Z,8.98
2018-12-16T02:16:56.245Z,8.85
2018-12-16T02:19:25.553Z,9.48
2018-12-16T02:21:54.695Z,9.18
2018-12-16T02:24:24.179Z,10.15
2018-12-16T02:26:53.389Z,9.15
2018-12-16T02:29:22.684Z,8.53
2018-12-16T02:31:52.188Z,8.35
2018-12-16T02:34:21.460Z,8.58
2018-12-16T02:36:50.807Z,7.95
2018-12-16T02:39:20.137Z,8.38
2018-12-16T02:41:49.428Z,7.87
2018-12-16T02:44:18.707Z,8.20
2018-12-16T02:46:48.232Z,8.20
2018-12-16T02:49:17.604Z,8.30
2018-12-16T02:51:46.910Z,7.75
2018-12-16T02:54:16.132Z,7.85
2018-12-16T02:56:45.413Z,8.20
2018-12-16T02:59:14.734Z,7.87
2018-12-16T03:01:48.375Z,7.37
2018-12-16T03:04:17.724Z,8.35
2018-12-16T03:06:47.121Z,8.00
2018-12-16T03:09:16.461Z,7.60
2018-12-16T03:11:45.831Z,7.70
2018-12-16T03:14:15.335Z,7.35
2018-12-16T03:16:44.741Z,7.20
2018-12-16T03:19:14.149Z,7.10
2018-12-16T03:21:43.463Z,7.30
2018-12-16T03:24:12.638Z,6.90
2018-12-16T03:26:41.840Z,7.47
2018-12-16T03:29:11.135Z,7.42
2018-12-16T03:31:40.344Z,7.35
2018-12-16T03:34:09.642Z,6.17
2018-12-16T03:36:38.951Z,7.00
2018-12-16T03:39:08.261Z,7.08
2018-12-16T03:41:37.587Z,7.55
2018-12-16T03:44:07.047Z,6.80
2018-12-16T03:46:36.252Z,6.47
2018-12-16T03:49:05.671Z,6.75
2018-12-16T03:51:35.060Z,6.30
2018-12-16T03:54:04.366Z,6.65
2018-12-16T03:56:33.547Z,6.72
2018-12-16T03:59:19.051Z,6.50
2018-12-16T04:01:53.099Z,6.35
2018-12-16T04:04:22.351Z,7.30
2018-12-16T04:06:51.673Z,5.90
2018-12-16T04:09:20.973Z,6.28
2018-12-16T04:11:50.394Z,6.90
2018-12-16T04:14:19.862Z,6.60
2018-12-16T04:16:49.273Z,6.00
2018-12-16T04:19:18.745Z,6.12
2018-12-16T04:21:47.978Z,6.30
2018-12-16T04:24:17.217Z,6.30
2018-12-16T04:26:46.679Z,6.15
2018-12-16T04:29:16.096Z,6.40
2018-12-16T04:31:45.475Z,5.95
2018-12-16T04:34:14.799Z,6.15
2018-12-16T04:36:44.201Z,6.25
2018-12-16T04:39:13.504Z,5.90
2018-12-16T04:41:42.809Z,5.75
2018-12-16T04:44:12.084Z,5.95
2018-12-16T04:46:41.439Z,6.03
2018-12-16T04:49:10.895Z,6.17
2018-12-16T04:51:40.400Z,5.75
2018-12-16T04:54:09.715Z,5.78
2018-12-16T04:56:39.103Z,5.78
2018-12-16T04:59:08.327Z,5.30
2018-12-16T05:01:37.616Z,5.50
2018-12-16T05:04:06.905Z,5.75
2018-12-16T05:06:36.115Z,5.30
2018-12-16T05:09:07.405Z,5.22
2018-12-16T05:11:36.854Z,5.37
2018-12-16T05:14:06.376Z,5.20
2018-12-16T05:16:35.672Z,5.40
2018-12-16T05:19:05.080Z,5.50
2018-12-16T05:21:34.376Z,5.35
2018-12-16T05:24:03.691Z,4.97
2018-12-16T05:26:33.067Z,5.40
2018-12-16T05:29:02.487Z,5.03
2018-12-16T05:31:31.901Z,4.85
2018-12-16T05:34:01.323Z,4.58
2018-12-16T05:36:30.602Z,5.12
2018-12-16T05:38:59.999Z,4.90
2018-12-16T05:41:29.383Z,4.83
2018-12-16T05:43:58.691Z,4.97
2018-12-16T05:46:27.899Z,4.67
2018-12-16T05:48:57.200Z,4.90
2018-12-16T05:51:26.627Z,5.25
2018-12-16T05:53:56.032Z,5.00
2018-12-16T05:56:25.430Z,5.25
2018-12-16T05:58:55.020Z,4.97
2018-12-16T06:01:24.294Z,5.00
2018-12-16T06:03:53.625Z,4.70
2018-12-16T06:06:22.933Z,4.75
2018-12-16T06:08:52.240Z,4.83
2018-12-16T06:11:21.540Z,4.37
2018-12-16T06:13:50.834Z,4.70
2018-12-16T06:16:20.135Z,4.70
2018-12-16T06:18:49.660Z,4.65
2018-12-16T06:21:18.943Z,4.67
2018-12-16T06:23:55.228Z,4.17
2018-12-16T06:26:19.714Z,4.37
2018-12-16T06:28:49.127Z,4.70
2018-12-16T06:31:18.407Z,4.40
2018-12-16T06:33:47.733Z,4.87
2018-12-16T06:36:17.200Z,4.70
2018-12-16T06:38:46.609Z,4.37
2018-12-16T06:41:16.016Z,4.22
2018-12-16T06:43:45.303Z,4.70
2018-12-16T06:46:14.524Z,4.70
2018-12-16T06:48:43.815Z,3.85
2018-12-16T06:51:13.016Z,4.10
2018-12-16T06:53:42.352Z,4.60
2018-12-16T06:56:11.720Z,4.53
2018-12-16T06:58:41.194Z,4.25
2018-12-16T07:01:10.524Z,4.75
2018-12-16T07:03:39.748Z,4.85
2018-12-16T07:06:08.938Z,4.90
2018-12-16T07:08:38.215Z,5.12
2018-12-16T07:11:07.429Z,5.33
2018-12-16T07:13:36.727Z,6.97
2018-12-16T07:16:06.036Z,8.28
2018-12-16T07:18:35.432Z,9.50
2018-12-16T07:21:04.923Z,9.83
2018-12-16T07:23:34.335Z,16.93
2018-12-16T07:26:03.853Z,26.75
2018-12-16T07:28:33.303Z,24.77
2018-12-16T07:31:02.651Z,18.57
2018-12-16T07:33:31.845Z,20.27
2018-12-16T07:36:01.168Z,26.75
2018-12-16T07:38:30.457Z,29.12
2018-12-16T07:40:59.862Z,28.98
2018-12-16T07:43:29.356Z,22.22
2018-12-16T07:45:58.592Z,29.45
2018-12-16T07:48:28.388Z,31.60
2018-12-16T07:50:57.696Z,32.38
2018-12-16T07:53:27.184Z,31.33
2018-12-16T07:55:56.689Z,40.03
2018-12-16T07:58:26.101Z,37.20
2018-12-16T08:00:55.428Z,40.28
2018-12-16T08:03:24.692Z,44.80
2018-12-16T08:05:54.019Z,44.83
2018-12-16T08:08:23.383Z,47.48
2018-12-16T08:10:52.693Z,49.15
2018-12-16T08:13:22.268Z,52.30
2018-12-16T08:15:51.612Z,52.80
2018-12-16T08:18:21.003Z,49.55
2018-12-16T08:20:50.216Z,53.38
2018-12-16T08:23:19.630Z,52.27
2018-12-16T08:25:48.919Z,51.02
2018-12-16T08:28:18.324Z,52.65
2018-12-16T08:30:47.640Z,51.95
2018-12-16T08:33:16.851Z,51.68
2018-12-16T08:35:46.219Z,51.23
2018-12-16T08:38:15.660Z,52.60
2018-12-16T08:40:44.934Z,51.15
2018-12-16T08:43:14.327Z,48.70
2018-12-16T08:45:43.548Z,48.63
2018-12-16T08:48:12.940Z,47.58
2018-12-16T08:50:42.248Z,45.23
2018-12-16T08:53:11.571Z,43.23
2018-12-16T08:55:41.057Z,44.53
2018-12-16T08:58:10.351Z,44.45
2018-12-16T09:00:39.750Z,43.75
2018-12-16T09:03:11.267Z,42.67
2018-12-16T09:05:40.528Z,41.35
2018-12-16T09:08:09.799Z,41.55
2018-12-16T09:10:39.172Z,41.53
2018-12-16T09:13:08.677Z,40.40
2018-12-16T09:15:38.011Z,38.50
2018-12-16T09:18:07.228Z,36.48
2018-12-16T09:20:36.629Z,38.95
2018-12-16T09:23:06.038Z,35.85
2018-12-16T09:25:35.430Z,36.28
2018-12-16T09:28:04.760Z,34.65
2018-12-16T09:30:34.047Z,34.15
2018-12-16T09:33:03.344Z,36.53
2018-12-16T09:35:32.629Z,33.45
2018-12-16T09:38:02.132Z,35.58
2018-12-16T09:40:31.534Z,34.75
2018-12-16T09:43:00.829Z,32.15
2018-12-16T09:45:30.251Z,31.52
2018-12-16T09:47:59.833Z,31.12
2018-12-16T09:50:29.166Z,31.75
2018-12-16T09:52:58.602Z,30.55
2018-12-16T09:55:27.862Z,29.55
2018-12-16T09:57:57.172Z,27.55
2018-12-16T10:00:26.656Z,26.77
2018-12-16T10:02:56.063Z,29.07
2018-12-16T10:05:25.576Z,27.67
2018-12-16T10:07:54.765Z,26.82
2018-12-16T10:10:24.075Z,26.10
2018-12-16T10:12:53.484Z,24.82
2018-12-16T10:15:22.880Z,25.20
2018-12-16T10:17:51.984Z,26.15
2018-12-16T10:20:21.303Z,23.47
2018-12-16T10:22:50.484Z,23.52
2018-12-16T10:25:19.788Z,25.00
2018-12-16T10:27:49.271Z,23.70
2018-12-16T10:30:18.693Z,26.20
2018-12-16T10:32:47.974Z,25.55
2018-12-16T10:35:17.197Z,24.67
2018-12-16T10:37:46.599Z,25.97
2018-12-16T10:40:15.805Z,26.25
2018-12-16T10:42:45.203Z,28.25
2018-12-16T10:45:14.596Z,28.00
2018-12-16T10:47:43.810Z,29.18
2018-12-16T10:50:13.203Z,28.73
2018-12-16T10:52:42.427Z,30.15
2018-12-16T10:55:11.674Z,27.40
2018-12-16T10:57:40.915Z,18.62
2018-12-16T11:00:16.478Z,14.07
2018-12-16T11:02:45.848Z,12.88
2018-12-16T11:05:15.306Z,10.90
2018-12-16T11:07:44.672Z,9.10
2018-12-16T11:10:14.071Z,8.93
2018-12-16T11:12:43.553Z,6.90
2018-12-16T11:15:12.972Z,6.47
2018-12-16T11:17:42.286Z,6.72
2018-12-16T11:20:11.673Z,6.42
2018-12-16T11:22:41.104Z,6.25
2018-12-16T11:25:12.997Z,6.28
2018-12-16T11:27:42.195Z,7.33
2018-12-16T11:30:12.074Z,7.00
2018-12-16T11:32:41.275Z,7.62
2018-12-16T11:35:10.579Z,6.97
2018-12-16T11:37:39.888Z,6.67
2018-12-16T11:40:09.356Z,6.87
2018-12-16T11:42:38.681Z,7.75
2018-12-16T11:45:08.272Z,8.23
2018-12-16T11:47:37.491Z,10.23
2018-12-16T11:50:06.898Z,9.00
2018-12-16T11:52:36.297Z,9.25
2018-12-16T11:55:12.568Z,9.43
2018-12-16T11:57:36.788Z,8.15
2018-12-16T12:00:06.742Z,8.20
2018-12-16T12:02:35.945Z,7.90
2018-12-16T12:05:05.049Z,8.23
2018-12-16T12:07:34.361Z,9.08
2018-12-16T12:10:03.731Z,8.43
2018-12-16T12:12:33.155Z,8.13
2018-12-16T12:15:02.559Z,8.45
2018-12-16T12:17:31.872Z,8.35
2018-12-16T12:20:01.155Z,8.75
2018-12-16T12:22:30.469Z,7.92
2018-12-16T12:24:59.770Z,8.50
2018-12-16T12:27:28.963Z,7.90
2018-12-16T12:29:58.255Z,8.43
2018-12-16T12:32:27.461Z,7.95
2018-12-16T12:34:56.775Z,7.90
2018-12-16T12:37:25.955Z,7.62
2018-12-16T12:39:55.169Z,7.72
2018-12-16T12:42:24.372Z,8.08
2018-12-16T12:44:53.860Z,9.68
2018-12-16T12:47:23.155Z,8.08
2018-12-16T12:49:52.431Z,8.83
2018-12-16T12:52:21.776Z,8.00
2018-12-16T12:54:51.163Z,8.75
2018-12-16T12:57:20.364Z,8.13
2018-12-16T12:59:49.683Z,8.10
2018-12-16T13:02:18.976Z,8.23
2018-12-16T13:04:48.164Z,8.18
2018-12-16T13:07:17.267Z,7.87
2018-12-16T13:09:46.453Z,8.75
2018-12-16T13:12:15.808Z,8.73
2018-12-16T13:14:45.160Z,8.23
2018-12-16T13:17:14.576Z,7.95
2018-12-16T13:19:43.983Z,7.62
2018-12-16T13:22:13.271Z,7.67
2018-12-16T13:25:54.273Z,6.67
2018-12-16T13:28:23.555Z,7.90
2018-12-16T13:30:52.751Z,7.75
2018-12-16T13:33:22.160Z,26.73
2018-12-16T13:35:51.566Z,13.95
2018-12-16T13:38:20.886Z,16.67
2018-12-16T13:40:50.272Z,20.45
2018-12-16T13:43:19.728Z,19.20
2018-12-16T13:45:49.084Z,19.98
2018-12-16T13:48:18.479Z,24.20
2018-12-16T13:50:47.809Z,25.50
2018-12-16T13:53:17.395Z,24.77
2018-12-16T13:55:46.972Z,30.10
2018-12-16T13:58:16.212Z,29.05
2018-12-16T14:00:45.603Z,28.80
2018-12-16T14:03:14.924Z,27.15
2018-12-16T14:05:46.720Z,21.35
2018-12-16T14:08:15.748Z,21.40
2018-12-16T14:10:45.159Z,24.23
2018-12-16T14:13:14.462Z,25.85
2018-12-16T14:15:43.793Z,25.60
2018-12-16T14:18:13.071Z,23.52
2018-12-16T14:20:42.472Z,23.77
2018-12-16T14:23:11.703Z,21.23
2018-12-16T14:25:47.803Z,20.57
2018-12-16T14:28:12.316Z,21.60
2018-12-16T14:30:41.517Z,22.22
2018-12-16T14:33:10.840Z,20.60
2018-12-16T14:35:40.115Z,21.25
2018-12-16T14:38:09.693Z,21.60
2018-12-16T14:40:38.927Z,29.57
2018-12-16T14:43:08.237Z,32.17
2018-12-16T14:45:37.537Z,37.90
2018-12-16T14:48:06.951Z,33.28
2018-12-16T14:50:36.427Z,37.95
2018-12-16T14:53:05.649Z,37.50
2018-12-16T14:55:35.052Z,34.05
2018-12-16T14:58:04.465Z,31.97
2018-12-16T15:00:33.853Z,31.60
2018-12-16T15:03:03.141Z,32.05
2018-12-16T15:05:33.363Z,31.33
2018-12-16T15:08:02.787Z,29.60
2018-12-16T15:10:32.195Z,31.23
2018-12-16T15:13:01.604Z,32.10
2018-12-16T15:15:30.903Z,33.65
2018-12-16T15:18:00.200Z,35.43
2018-12-16T15:20:29.391Z,37.15
2018-12-16T15:22:58.683Z,45.05
2018-12-16T15:25:28.250Z,44.85
2018-12-16T15:27:57.704Z,45.70
2018-12-16T15:30:27.121Z,44.73
2018-12-16T15:32:56.510Z,45.88
2018-12-16T15:35:25.828Z,42.25
2018-12-16T15:37:55.128Z,45.58
2018-12-16T15:40:24.617Z,43.75
2018-12-16T15:42:54.015Z,45.75
2018-12-16T15:45:23.402Z,58.90
2018-12-16T15:47:52.723Z,44.88
2018-12-16T15:50:22.138Z,45.17
2018-12-16T15:52:51.440Z,43.38
2018-12-16T15:55:20.739Z,44.50
2018-12-16T15:57:50.050Z,45.83
2018-12-16T16:00:19.247Z,37.33
2018-12-16T16:02:48.549Z,41.83
2018-12-16T16:05:17.827Z,41.73
2018-12-16T16:07:46.966Z,40.05
2018-12-16T16:10:16.431Z,40.35
2018-12-16T16:12:45.831Z,40.88
2018-12-16T16:15:15.136Z,39.48
2018-12-16T16:17:44.460Z,37.67
2018-12-16T16:20:13.853Z,41.83
2018-12-16T16:22:43.256Z,42.08
2018-12-16T16:25:12.466Z,45.12
2018-12-16T16:27:41.755Z,44.58
2018-12-16T16:30:11.048Z,47.67
2018-12-16T16:32:40.281Z,49.00
2018-12-16T16:35:09.649Z,51.75
2018-12-16T16:37:38.840Z,53.98
2018-12-16T16:40:08.352Z,61.20
2018-12-16T16:42:37.759Z,64.40
2018-12-16T16:45:07.638Z,66.72
2018-12-16T16:47:36.647Z,66.95
2018-12-16T16:50:06.307Z,72.90
2018-12-16T16:52:35.679Z,72.17
2018-12-16T16:55:04.994Z,73.60
2018-12-16T16:57:34.396Z,81.47
2018-12-16T17:00:03.802Z,84.75
2018-12-16T17:02:33.140Z,86.02
2018-12-16T17:05:02.510Z,88.07
2018-12-16T17:07:32.068Z,79.80
2018-12-16T17:10:01.459Z,75.65
2018-12-16T17:12:30.808Z,80.67
2018-12-16T17:15:00.135Z,78.22
2018-12-16T17:17:29.418Z,76.75
2018-12-16T17:19:58.680Z,76.70
2018-12-16T17:22:27.948Z,74.37
2018-12-16T17:24:57.427Z,70.75
2018-12-16T17:27:26.916Z,71.50
2018-12-16T17:29:56.240Z,66.45
2018-12-16T17:32:25.419Z,65.22
2018-12-16T17:34:54.656Z,63.98
2018-12-16T17:37:23.918Z,63.20
2018-12-16T17:39:53.150Z,63.23
2018-12-16T17:42:22.545Z,61.08
2018-12-16T17:44:51.846Z,59.10
2018-12-16T17:47:21.249Z,57.73
2018-12-16T17:49:50.656Z,56.85
2018-12-16T17:52:19.838Z,55.95
2018-12-16T17:54:49.052Z,56.02
2018-12-16T17:57:18.445Z,53.90
2018-12-16T17:59:47.735Z,53.40
2018-12-16T18:02:16.940Z,52.38
2018-12-16T18:04:46.243Z,52.10
2018-12-16T18:07:15.643Z,51.70
2018-12-16T18:09:44.854Z,51.90
2018-12-16T18:12:14.268Z,50.28
2018-12-16T18:14:43.747Z,48.80
2018-12-16T18:17:13.075Z,48.45
2018-12-16T18:19:42.464Z,48.52
2018-12-16T18:22:14.085Z,46.10
2018-12-16T18:24:43.207Z,47.48
2018-12-16T18:27:12.370Z,44.98
2018-12-16T18:29:41.727Z,43.78
2018-12-16T18:32:11.116Z,43.38
2018-12-16T18:34:40.311Z,42.35
2018-12-16T18:37:09.724Z,40.43
2018-12-16T18:39:39.016Z,38.67
2018-12-16T18:42:08.689Z,37.25
2018-12-16T18:44:38.151Z,38.83
2018-12-16T18:47:07.631Z,37.78
2018-12-16T18:49:36.854Z,37.67
2018-12-16T18:52:06.250Z,36.53
2018-12-16T18:54:35.645Z,36.33
2018-12-16T18:57:07.416Z,36.35
2018-12-16T18:59:36.500Z,34.85
2018-12-16T19:02:06.228Z,34.73
2018-12-16T19:04:35.729Z,34.05
2018-12-16T19:07:07.121Z,32.10
2018-12-16T19:09:36.375Z,32.10
2018-12-16T19:12:05.665Z,32.75
2018-12-16T19:14:35.140Z,32.90
2018-12-16T19:17:04.300Z,32.63
2018-12-16T19:19:33.585Z,31.02
2018-12-16T19:22:02.879Z,31.77
2018-12-16T19:24:32.197Z,31.05
2018-12-16T19:27:01.368Z,30.23
2018-12-16T19:29:30.546Z,30.23
2018-12-16T19:31:59.658Z,30.08
2018-12-16T19:34:28.870Z,29.72
2018-12-16T19:36:58.156Z,30.10
2018-12-16T19:39:28.308Z,30.43
2018-12-16T19:41:57.584Z,29.18
2018-12-16T19:44:26.811Z,28.67
2018-12-16T19:46:56.353Z,29.15
2018-12-16T19:49:25.652Z,27.95
2018-12-16T19:51:55.054Z,28.65
2018-12-16T19:54:24.877Z,27.80
2018-12-16T19:56:54.258Z,27.65
2018-12-16T19:59:23.668Z,28.60
2018-12-16T20:01:52.833Z,27.65
2018-12-16T20:04:24.651Z,27.05
2018-12-16T20:06:54.003Z,26.30
2018-12-16T20:09:23.321Z,26.10
2018-12-16T20:11:52.613Z,25.60
2018-12-16T20:14:21.840Z,25.85
2018-12-16T20:16:51.295Z,24.10
2018-12-16T20:19:20.713Z,24.57
2018-12-16T20:21:50.117Z,24.18
2018-12-16T20:24:19.425Z,23.32
2018-12-16T20:26:48.764Z,21.87
2018-12-16T20:29:18.067Z,22.25
2018-12-16T20:31:47.403Z,21.93
2018-12-16T20:34:16.816Z,22.15
2018-12-16T20:36:46.219Z,21.10
2018-12-16T20:39:15.618Z,21.40
2018-12-16T20:41:44.920Z,20.97
2018-12-16T20:44:14.244Z,21.20
2018-12-16T20:46:43.555Z,20.88
2018-12-16T20:49:13.048Z,19.48
2018-12-16T20:51:42.536Z,20.90
2018-12-16T20:54:11.939Z,20.65
2018-12-16T20:56:41.368Z,20.30
2018-12-16T20:59:10.670Z,20.32
2018-12-16T21:01:39.984Z,19.40
2018-12-16T21:04:09.449Z,18.73
2018-12-16T21:06:39.249Z,19.73
2018-12-16T21:09:08.892Z,18.35
2018-12-16T21:11:43.144Z,18.73
2018-12-16T21:14:17.471Z,17.57
2018-12-16T21:16:51.620Z,18.05
2018-12-16T21:19:21.188Z,17.85
2018-12-16T21:21:50.659Z,17.75
2018-12-16T21:24:20.088Z,18.42
2018-12-16T21:26:49.603Z,17.57
2018-12-16T21:29:18.964Z,16.60
2018-12-16T21:31:48.175Z,17.10
2018-12-16T21:34:17.352Z,16.45
2018-12-16T21:36:46.800Z,16.73
2018-12-16T21:39:16.248Z,16.23
2018-12-16T21:41:45.571Z,16.40
2018-12-16T21:44:14.975Z,16.97
2018-12-16T21:46:44.374Z,16.42
2018-12-16T21:49:13.687Z,15.85
2018-12-16T21:51:43.098Z,15.68
2018-12-16T21:54:12.572Z,14.58
2018-12-16T21:56:41.920Z,16.02
2018-12-16T21:59:11.275Z,15.43
2018-12-16T22:01:40.679Z,14.75
2018-12-16T22:04:09.979Z,14.60
2018-12-16T22:06:39.312Z,14.33
2018-12-16T22:09:09.299Z,14.43
2018-12-16T22:11:38.621Z,14.50
2018-12-16T22:14:08.003Z,14.10
2018-12-16T22:16:37.414Z,14.73
2018-12-16T22:19:06.821Z,14.23
2018-12-16T22:21:36.135Z,14.03
2018-12-16T22:24:05.435Z,13.93
2018-12-16T22:26:34.921Z,13.68
2018-12-16T22:29:04.219Z,13.72
2018-12-16T22:31:33.543Z,13.38
2018-12-16T22:34:02.952Z,13.88
2018-12-16T22:36:32.283Z,12.50
2018-12-16T22:39:01.568Z,12.23
2018-12-16T22:41:30.859Z,13.00
2018-12-16T22:44:00.279Z,12.98
2018-12-16T22:46:29.788Z,12.88
2018-12-16T22:48:59.140Z,13.05
2018-12-16T22:51:28.391Z,12.63
2018-12-16T22:53:57.761Z,12.37
2018-12-16T22:56:26.965Z,12.65
2018-12-16T22:58:56.280Z,12.55
2018-12-16T23:01:25.651Z,12.33
2018-12-16T23:03:55.898Z,11.68
2018-12-16T23:06:25.485Z,12.07
2018-12-16T23:08:54.988Z,12.07
2018-12-16T23:11:24.290Z,11.40
2018-12-16T23:13:53.711Z,11.15
2018-12-16T23:16:23.116Z,11.20
2018-12-16T23:18:52.407Z,11.10
2018-12-16T23:21:21.909Z,11.15
2018-12-16T23:23:51.415Z,11.28
2018-12-16T23:26:20.819Z,11.12
2018-12-16T23:28:50.271Z,11.25
2018-12-16T23:31:19.868Z,10.90
2018-12-16T23:33:49.247Z,10.82
2018-12-16T23:36:19.736Z,10.80
2018-12-16T23:38:49.074Z,11.03
2018-12-16T23:41:18.507Z,10.53
2018-12-16T23:43:47.803Z,10.50
2018-12-16T23:46:17.143Z,10.38
2018-12-16T23:48:46.596Z,10.40
2018-12-16T23:51:16.032Z,10.35
2018-12-16T23:53:45.284Z,10.13
2018-12-16T23:56:14.491Z,9.45
2018-12-16T23:58:43.788Z,10.55
